createdAt,value
2022-10-28T00:01:16.843Z,12.40
2022-10-28T00:03:49.482Z,12.40
2022-10-28T00:06:23.098Z,12.40
2022-10-28T00:08:50.739Z,12.80
2022-10-28T00:11:21.311Z,12.90
2022-10-28T00:13:49.545Z,12.80
2022-10-28T00:16:20.048Z,12.70
2022-10-28T00:18:48.168Z,12.60
2022-10-28T00:21:19.464Z,12.40
2022-10-28T00:23:47.188Z,12.20
2022-10-28T00:26:20.603Z,12.10
2022-10-28T00:28:57.129Z,12.10
2022-10-28T00:31:27.951Z,12.10
2022-10-28T00:33:55.965Z,12.00
2022-10-28T00:36:27.439Z,12.00
2022-10-28T00:38:56.187Z,12.10
2022-10-28T00:41:27.937Z,12.10
2022-10-28T00:43:58.042Z,12.30
2022-10-28T00:46:38.150Z,12.40
2022-10-28T00:49:27.394Z,12.40
2022-10-28T00:52:05.857Z,12.30
2022-10-28T00:54:33.870Z,12.50
2022-10-28T00:57:05.862Z,12.90
2022-10-28T00:59:36.400Z,13.00
2022-10-28T01:02:05.488Z,12.90
2022-10-28T01:04:33.214Z,12.90
2022-10-28T01:07:01.660Z,12.90
2022-10-28T01:09:29.027Z,13.20
2022-10-28T01:12:33.990Z,13.00
2022-10-28T01:15:22.622Z,12.90
2022-10-28T01:18:12.092Z,12.60
2022-10-28T01:21:01.212Z,12.40
2022-10-28T01:23:48.219Z,12.60
2022-10-28T01:26:38.435Z,12.90
2022-10-28T01:29:43.029Z,13.20
2022-10-28T01:32:19.534Z,13.00
2022-10-28T01:35:05.221Z,12.60
2022-10-28T01:37:46.988Z,12.40
2022-10-28T01:40:34.671Z,12.30
2022-10-28T01:43:15.848Z,12.20
2022-10-28T01:45:43.153Z,12.10
2022-10-28T01:48:19.753Z,12.10
2022-10-28T01:51:01.647Z,12.00
2022-10-28T01:53:35.849Z,12.20
2022-10-28T01:56:08.299Z,12.40
2022-10-28T01:58:38.371Z,12.20
2022-10-28T02:01:09.419Z,12.10
2022-10-28T02:03:37.280Z,12.10
2022-10-28T02:06:12.003Z,12.00
2022-10-28T02:08:42.080Z,12.00
2022-10-28T02:11:42.709Z,12.00
2022-10-28T02:14:19.103Z,12.10
2022-10-28T02:17:18.323Z,12.10
2022-10-28T02:19:54.445Z,12.20
2022-10-28T02:22:52.968Z,12.20
2022-10-28T02:25:30.231Z,12.10
2022-10-28T02:28:20.579Z,12.00
2022-10-28T02:30:47.955Z,12.00
2022-10-28T02:33:21.401Z,11.90
2022-10-28T02:35:57.828Z,11.80
2022-10-28T02:38:55.963Z,11.80
2022-10-28T02:41:26.389Z,11.90
2022-10-28T02:43:56.462Z,11.80
2022-10-28T02:46:26.851Z,11.70
2022-10-28T02:49:00.898Z,11.70
2022-10-28T02:51:38.347Z,11.90
2022-10-28T02:54:11.862Z,12.10
2022-10-28T02:56:55.499Z,11.90
2022-10-28T02:59:25.773Z,11.70
2022-10-28T03:01:53.309Z,11.40
2022-10-28T03:04:20.823Z,11.30
2022-10-28T03:06:48.339Z,11.20
2022-10-28T03:09:15.827Z,11.20
2022-10-28T03:11:43.212Z,11.20
2022-10-28T03:14:13.214Z,11.20
2022-10-28T03:16:42.886Z,11.30
2022-10-28T03:19:10.321Z,11.60
2022-10-28T03:21:37.690Z,12.00
2022-10-28T03:24:05.212Z,12.40
2022-10-28T03:26:32.641Z,12.70
2022-10-28T03:29:00.026Z,12.80
2022-10-28T03:31:27.437Z,13.00
2022-10-28T03:33:54.900Z,12.90
2022-10-28T03:36:22.260Z,13.10
2022-10-28T03:38:49.599Z,13.20
2022-10-28T03:41:16.979Z,13.00
2022-10-28T03:43:44.574Z,13.00
2022-10-28T03:46:12.221Z,13.10
2022-10-28T03:48:39.582Z,12.80
2022-10-28T03:51:07.087Z,12.40
2022-10-28T03:53:34.543Z,12.20
2022-10-28T03:56:02.694Z,12.50
2022-10-28T03:58:30.211Z,13.40
2022-10-28T04:00:57.725Z,12.40
2022-10-28T04:03:26.032Z,12.20
2022-10-28T04:05:53.388Z,12.20
2022-10-28T04:08:21.602Z,12.00
2022-10-28T04:10:49.367Z,11.80
2022-10-28T04:13:17.747Z,11.70
2022-10-28T04:15:45.130Z,11.50
2022-10-28T04:18:12.549Z,11.50
2022-10-28T04:20:40.191Z,11.40
2022-10-28T04:23:08.671Z,11.40
2022-10-28T04:25:36.056Z,11.30
2022-10-28T04:28:04.679Z,11.20
2022-10-28T04:30:32.039Z,11.20
2022-10-28T04:32:59.369Z,11.00
2022-10-28T04:35:26.862Z,11.10
2022-10-28T04:37:54.479Z,11.00
2022-10-28T04:40:22.007Z,11.00
2022-10-28T04:42:49.372Z,10.90
2022-10-28T04:45:16.799Z,11.00
2022-10-28T04:47:44.102Z,10.90
2022-10-28T04:50:11.477Z,10.90
2022-10-28T04:52:38.818Z,10.90
2022-10-28T04:55:06.575Z,10.80
2022-10-28T04:57:33.931Z,10.80
2022-10-28T05:00:01.272Z,10.70
2022-10-28T05:02:28.862Z,10.70
2022-10-28T05:05:00.219Z,10.70
2022-10-28T05:07:27.747Z,10.80
2022-10-28T05:09:55.311Z,10.80
2022-10-28T05:12:22.664Z,10.80
2022-10-28T05:14:52.478Z,10.70
2022-10-28T05:17:20.706Z,10.70
2022-10-28T05:19:48.099Z,10.60
2022-10-28T05:22:15.481Z,10.60
2022-10-28T05:24:42.803Z,10.60
2022-10-28T05:27:10.157Z,10.60
2022-10-28T05:29:37.480Z,10.60
2022-10-28T05:34:37.311Z,10.50
2022-10-28T05:37:04.662Z,10.50
2022-10-28T05:39:32.072Z,10.50
2022-10-28T05:41:59.535Z,10.50
2022-10-28T05:44:26.918Z,10.50
2022-10-28T05:46:55.176Z,10.50
2022-10-28T05:49:22.795Z,10.50
2022-10-28T05:51:50.171Z,10.50
2022-10-28T05:54:17.554Z,10.50
2022-10-28T05:56:45.014Z,10.60
2022-10-28T05:59:12.406Z,10.60
2022-10-28T06:01:40.348Z,10.60
2022-10-28T06:04:07.883Z,10.70
2022-10-28T06:06:35.375Z,10.70
2022-10-28T06:09:02.984Z,10.70
2022-10-28T06:11:29.433Z,10.70
2022-10-28T06:13:56.918Z,10.80
2022-10-28T06:16:24.311Z,10.80
2022-10-28T06:18:51.799Z,10.90
2022-10-28T06:21:19.179Z,10.90
2022-10-28T06:23:46.838Z,11.00
2022-10-28T06:26:14.192Z,11.00
2022-10-28T06:28:41.497Z,11.10
2022-10-28T06:31:08.910Z,11.20
2022-10-28T06:33:36.344Z,11.30
2022-10-28T06:36:03.992Z,11.60
2022-10-28T06:38:31.398Z,11.70
2022-10-28T06:40:58.999Z,11.90
2022-10-28T06:43:26.555Z,12.00
2022-10-28T06:45:55.648Z,12.10
2022-10-28T06:48:24.803Z,12.30
2022-10-28T06:50:54.513Z,12.40
2022-10-28T06:53:22.193Z,12.60
2022-10-28T06:55:56.847Z,12.60
2022-10-28T06:58:25.525Z,12.60
2022-10-28T07:00:53.749Z,12.80
2022-10-28T07:03:21.372Z,12.90
2022-10-28T07:05:50.366Z,13.10
2022-10-28T07:08:17.953Z,13.10
2022-10-28T07:10:52.805Z,13.30
2022-10-28T07:13:20.167Z,13.40
2022-10-28T07:15:55.467Z,13.50
2022-10-28T07:18:24.098Z,13.70
2022-10-28T07:20:51.712Z,13.80
2022-10-28T07:25:56.920Z,14.10
2022-10-28T07:28:25.849Z,14.30
2022-10-28T07:30:53.228Z,14.50
2022-10-28T07:33:20.970Z,14.70
2022-10-28T07:35:48.447Z,14.90
2022-10-28T07:38:16.121Z,15.00
2022-10-28T07:40:43.499Z,15.30
2022-10-28T07:43:11.146Z,15.50
2022-10-28T07:45:38.829Z,15.70
2022-10-28T07:48:06.758Z,15.90
2022-10-28T07:50:34.180Z,16.10
2022-10-28T07:53:01.617Z,16.30
2022-10-28T07:55:29.126Z,16.40
2022-10-28T07:57:56.813Z,16.40
2022-10-28T08:00:24.383Z,16.50
2022-10-28T08:02:51.710Z,16.70
2022-10-28T08:05:19.130Z,16.70
2022-10-28T08:07:47.925Z,16.70
2022-10-28T08:10:15.398Z,16.80
2022-10-28T08:12:42.917Z,16.80
2022-10-28T08:15:10.713Z,16.90
2022-10-28T08:17:38.432Z,17.00
2022-10-28T08:20:06.694Z,17.20
2022-10-28T08:22:34.029Z,17.30
2022-10-28T08:25:01.391Z,17.30
2022-10-28T08:27:28.745Z,17.40
2022-10-28T08:29:56.234Z,17.50
2022-10-28T08:32:23.609Z,17.60
2022-10-28T08:34:50.992Z,17.60
2022-10-28T08:37:18.489Z,17.70
2022-10-28T08:39:45.888Z,17.70
2022-10-28T08:42:46.177Z,17.90
2022-10-28T08:45:39.773Z,17.90
2022-10-28T08:48:34.837Z,17.90
2022-10-28T08:51:16.199Z,17.90
2022-10-28T08:53:53.829Z,18.00
2022-10-28T08:56:30.081Z,18.10
2022-10-28T08:59:00.350Z,18.10
2022-10-28T09:04:39.408Z,18.30
2022-10-28T09:07:16.282Z,18.40
2022-10-28T09:09:44.675Z,18.30
2022-10-28T09:12:42.136Z,18.30
2022-10-28T09:15:21.962Z,18.30
2022-10-28T09:18:04.203Z,18.40
2022-10-28T09:20:46.675Z,18.40
2022-10-28T09:23:20.849Z,18.40
2022-10-28T09:26:06.738Z,18.40
2022-10-28T09:29:03.008Z,18.40
2022-10-28T09:31:39.270Z,18.60
2022-10-28T09:34:32.874Z,18.60
2022-10-28T09:37:27.620Z,18.70
2022-10-28T09:40:18.964Z,18.90
2022-10-28T09:43:20.683Z,18.80
2022-10-28T09:45:51.723Z,18.80
2022-10-28T09:48:29.401Z,18.90
2022-10-28T09:50:58.544Z,18.90
2022-10-28T09:53:37.901Z,19.00
2022-10-28T09:56:06.561Z,19.00
2022-10-28T09:58:35.739Z,19.10
2022-10-28T10:01:04.923Z,19.10
2022-10-28T10:03:32.882Z,19.30
2022-10-28T10:06:08.626Z,19.40
2022-10-28T10:08:37.496Z,19.50
2022-10-28T10:11:42.870Z,19.50
2022-10-28T10:14:15.126Z,19.60
2022-10-28T10:16:47.397Z,19.50
2022-10-28T10:19:14.818Z,19.50
2022-10-28T10:21:45.369Z,19.60
2022-10-28T10:24:35.460Z,19.80
2022-10-28T10:27:23.878Z,19.90
2022-10-28T10:29:52.946Z,20.20
2022-10-28T10:32:25.858Z,20.00
2022-10-28T10:35:25.822Z,20.20
2022-10-28T10:37:56.063Z,20.10
2022-10-28T10:40:47.042Z,20.00
2022-10-28T10:43:24.741Z,20.00
2022-10-28T10:46:02.520Z,20.10
2022-10-28T10:48:32.443Z,20.10
2022-10-28T10:51:20.493Z,20.50
2022-10-28T10:53:55.337Z,20.60
2022-10-28T10:56:30.902Z,20.50
2022-10-28T10:59:02.329Z,20.40
2022-10-28T11:01:35.872Z,20.50
2022-10-28T11:04:06.282Z,20.50
2022-10-28T11:06:39.238Z,20.50
2022-10-28T11:09:19.355Z,20.60
2022-10-28T11:11:46.762Z,20.60
2022-10-28T11:14:14.082Z,20.60
2022-10-28T11:16:47.548Z,20.60
2022-10-28T11:19:31.914Z,20.60
2022-10-28T11:22:17.201Z,20.80
2022-10-28T11:24:47.509Z,20.80
2022-10-28T11:27:48.603Z,20.70
2022-10-28T11:30:22.128Z,20.80
2022-10-28T11:33:30.408Z,20.80
2022-10-28T11:36:10.338Z,21.00
2022-10-28T11:38:56.323Z,21.00
2022-10-28T11:41:38.939Z,21.10
2022-10-28T11:44:23.920Z,21.10
2022-10-28T11:47:06.084Z,21.10
2022-10-28T11:49:42.330Z,21.20
2022-10-28T11:52:47.491Z,21.30
2022-10-28T11:55:39.121Z,21.40
2022-10-28T11:58:39.674Z,21.40
2022-10-28T12:01:55.431Z,21.50
2022-10-28T12:04:40.539Z,21.50
2022-10-28T12:07:10.938Z,21.70
2022-10-28T12:09:53.521Z,21.90
2022-10-28T12:12:51.495Z,21.90
2022-10-28T12:15:27.724Z,22.00
2022-10-28T12:18:14.285Z,22.10
2022-10-28T12:21:05.371Z,22.20
2022-10-28T12:23:35.638Z,22.50
2022-10-28T12:26:08.385Z,22.60
2022-10-28T12:28:54.035Z,22.70
2022-10-28T12:31:28.391Z,22.80
2022-10-28T12:34:01.961Z,23.10
2022-10-28T12:36:41.766Z,23.00
2022-10-28T12:39:21.558Z,23.10
2022-10-28T12:42:15.076Z,23.10
2022-10-28T12:44:43.203Z,23.00
2022-10-28T12:47:14.834Z,23.10
2022-10-28T12:49:55.198Z,23.20
2022-10-28T12:52:49.843Z,23.20
2022-10-28T12:55:38.026Z,23.30
2022-10-28T12:58:36.505Z,23.50
2022-10-28T13:01:10.065Z,23.50
2022-10-28T13:03:37.736Z,23.60
2022-10-28T13:06:29.379Z,23.60
2022-10-28T13:09:19.435Z,23.50
2022-10-28T13:12:17.371Z,23.50
2022-10-28T13:18:06.426Z,23.20
2022-10-28T13:20:57.984Z,23.10
2022-10-28T13:23:53.449Z,23.20
2022-10-28T13:26:26.855Z,23.20
2022-10-28T13:29:00.490Z,23.20
2022-10-28T13:31:46.178Z,23.00
2022-10-28T13:34:16.368Z,23.00
2022-10-28T13:36:57.694Z,22.90
2022-10-28T13:39:38.914Z,22.90
2022-10-28T13:42:16.093Z,22.90
2022-10-28T13:44:50.832Z,22.90
2022-10-28T13:47:18.171Z,22.90
2022-10-28T13:50:08.004Z,22.80
2022-10-28T13:52:38.091Z,22.80
2022-10-28T13:55:14.257Z,22.70
2022-10-28T13:57:48.383Z,22.60
2022-10-28T14:00:18.824Z,22.60
2022-10-28T14:02:53.476Z,22.60
2022-10-28T14:05:36.475Z,22.50
2022-10-28T14:08:07.229Z,22.40
2022-10-28T14:10:38.142Z,22.40
2022-10-28T14:15:48.879Z,22.20
2022-10-28T14:21:05.094Z,22.30
2022-10-28T14:23:36.566Z,22.30
2022-10-28T14:26:06.018Z,22.30
2022-10-28T14:28:33.321Z,22.30
2022-10-28T14:31:12.711Z,22.40
2022-10-28T14:33:42.852Z,22.40
2022-10-28T14:36:19.430Z,22.50
2022-10-28T14:39:20.308Z,22.40
2022-10-28T14:42:05.930Z,22.40
2022-10-28T14:44:39.033Z,22.40
2022-10-28T14:48:03.607Z,22.30
2022-10-28T14:50:41.048Z,22.20
2022-10-28T14:53:32.961Z,22.10
2022-10-28T14:56:08.031Z,22.20
2022-10-28T14:58:41.727Z,22.30
2022-10-28T15:01:18.556Z,22.30
2022-10-28T15:03:48.716Z,22.20
2022-10-28T15:06:34.226Z,22.20
2022-10-28T15:09:27.247Z,22.10
2022-10-28T15:12:05.742Z,22.10
2022-10-28T15:14:42.146Z,22.00
2022-10-28T15:17:24.026Z,21.90
2022-10-28T15:19:54.641Z,21.90
2022-10-28T15:22:30.568Z,21.80
2022-10-28T15:25:05.273Z,21.70
2022-10-28T15:27:35.860Z,21.70
2022-10-28T15:30:23.730Z,21.70
2022-10-28T15:32:52.897Z,21.70
2022-10-28T15:35:29.959Z,21.70
2022-10-28T15:38:00.946Z,21.70
2022-10-28T15:40:33.760Z,21.50
2022-10-28T15:43:17.250Z,21.50
2022-10-28T15:45:46.080Z,21.40
2022-10-28T15:48:24.017Z,21.30
2022-10-28T15:51:17.557Z,21.20
2022-10-28T15:53:55.162Z,21.10
2022-10-28T15:56:27.094Z,21.00
2022-10-28T15:59:23.301Z,20.80
2022-10-28T16:01:51.018Z,20.80
2022-10-28T16:04:18.451Z,20.40
2022-10-28T16:06:46.467Z,20.00
2022-10-28T16:09:35.802Z,19.70
2022-10-28T16:12:13.731Z,19.30
2022-10-28T16:14:43.902Z,19.00
2022-10-28T16:17:17.067Z,18.70
2022-10-28T16:20:00.872Z,18.40
2022-10-28T16:22:30.149Z,18.20
2022-10-28T16:24:57.673Z,18.00
2022-10-28T16:27:27.783Z,17.90
2022-10-28T16:29:55.180Z,17.80
2022-10-28T16:32:32.793Z,17.70
2022-10-28T16:42:04.559Z,17.10
2022-10-28T16:44:32.038Z,17.00
2022-10-28T16:46:59.440Z,16.90
2022-10-28T16:49:26.914Z,16.90
2022-10-28T16:51:54.552Z,16.80
2022-10-28T16:54:21.964Z,16.70
2022-10-28T16:56:49.342Z,16.80
2022-10-28T16:59:16.683Z,16.90
2022-10-28T17:01:44.201Z,16.80
2022-10-28T17:04:11.657Z,16.60
2022-10-28T17:06:39.031Z,16.40
2022-10-28T17:09:06.462Z,16.30
2022-10-28T17:11:33.837Z,16.10
2022-10-28T17:14:01.344Z,16.00
2022-10-28T17:16:28.696Z,15.90
2022-10-28T17:18:56.252Z,15.80
2022-10-28T17:21:23.670Z,15.80
2022-10-28T17:23:51.239Z,15.90
2022-10-28T17:26:18.743Z,15.90
2022-10-28T17:28:51.192Z,16.00
2022-10-28T17:31:23.859Z,16.00
2022-10-28T17:33:56.076Z,16.20
2022-10-28T17:36:23.698Z,16.40
2022-10-28T17:38:51.107Z,16.60
2022-10-28T17:41:19.368Z,17.10
2022-10-28T17:43:46.848Z,17.10
2022-10-28T17:46:14.254Z,16.90
2022-10-28T17:48:41.834Z,16.70
2022-10-28T17:51:09.295Z,16.10
2022-10-28T17:53:36.784Z,15.80
2022-10-28T17:56:06.124Z,15.70
2022-10-28T17:58:33.672Z,15.50
2022-10-28T18:01:06.907Z,15.40
2022-10-28T18:03:38.418Z,15.40
2022-10-28T18:06:11.178Z,15.60
2022-10-28T18:08:42.599Z,16.00
2022-10-28T18:11:12.398Z,15.80
2022-10-28T18:13:41.810Z,15.40
2022-10-28T18:16:10.757Z,15.30
2022-10-28T18:18:42.136Z,15.10
2022-10-28T18:21:11.474Z,14.90
2022-10-28T18:23:39.335Z,14.80
2022-10-28T18:26:10.315Z,14.70
2022-10-28T18:28:38.497Z,14.70
2022-10-28T18:31:09.406Z,14.70
2022-10-28T18:33:37.069Z,14.60
2022-10-28T18:36:18.087Z,14.50
2022-10-28T18:38:45.502Z,14.50
2022-10-28T18:41:17.797Z,14.50
2022-10-28T18:43:45.161Z,14.50
2022-10-28T18:46:13.328Z,14.40
2022-10-28T18:48:40.951Z,14.30
2022-10-28T18:51:11.504Z,14.30
2022-10-28T18:53:41.415Z,15.10
2022-10-28T18:56:18.577Z,15.80
2022-10-28T18:58:51.487Z,15.30
2022-10-28T19:01:24.888Z,15.00
2022-10-28T19:03:54.437Z,15.10
2022-10-28T19:06:22.707Z,14.80
2022-10-28T19:08:52.543Z,14.60
2022-10-28T19:11:21.375Z,14.60
2022-10-28T19:13:49.253Z,14.40
2022-10-28T19:16:16.626Z,14.20
2022-10-28T19:18:44.011Z,14.20
2022-10-28T19:21:16.513Z,14.60
2022-10-28T19:23:44.155Z,15.20
2022-10-28T19:26:12.517Z,15.00
2022-10-28T19:28:42.288Z,15.00
2022-10-28T19:31:16.174Z,14.70
2022-10-28T19:33:44.458Z,14.60
2022-10-28T19:36:18.899Z,14.40
2022-10-28T19:38:47.850Z,14.60
2022-10-28T19:41:21.149Z,14.50
2022-10-28T19:43:49.777Z,14.30
2022-10-28T19:46:20.943Z,14.20
2022-10-28T19:48:50.767Z,14.00
2022-10-28T19:51:24.383Z,13.80
2022-10-28T19:53:54.396Z,13.70
2022-10-28T19:56:22.190Z,13.80
2022-10-28T19:58:53.352Z,13.80
2022-10-28T20:01:22.313Z,13.80
2022-10-28T20:03:54.144Z,13.60
2022-10-28T20:06:26.660Z,13.40
2022-10-28T20:08:54.132Z,13.50
2022-10-28T20:11:27.105Z,13.50
2022-10-28T20:13:55.679Z,13.50
2022-10-28T20:16:24.288Z,13.50
2022-10-28T20:18:51.723Z,13.30
2022-10-28T20:21:20.774Z,13.40
2022-10-28T20:26:24.862Z,13.30
2022-10-28T20:28:52.670Z,13.10
2022-10-28T20:31:22.546Z,13.10
2022-10-28T20:33:55.056Z,13.10
2022-10-28T20:36:29.406Z,12.90
2022-10-28T20:39:05.411Z,12.90
2022-10-28T20:41:34.348Z,13.00
2022-10-28T20:44:02.756Z,13.00
2022-10-28T20:46:30.375Z,13.50
2022-10-28T20:48:58.149Z,13.50
2022-10-28T20:51:27.075Z,13.20
2022-10-28T20:53:54.716Z,13.00
2022-10-28T20:56:34.070Z,13.00
2022-10-28T20:59:01.618Z,12.80
2022-10-28T21:01:31.669Z,12.80
2022-10-28T21:04:02.351Z,12.80
2022-10-28T21:06:30.699Z,12.80
2022-10-28T21:08:58.816Z,12.90
2022-10-28T21:11:27.834Z,13.20
2022-10-28T21:13:59.912Z,13.00
2022-10-28T21:16:28.458Z,12.90
2022-10-28T21:18:55.976Z,12.80
2022-10-28T21:21:24.608Z,12.70
2022-10-28T21:23:52.649Z,12.60
2022-10-28T21:26:20.210Z,12.60
2022-10-28T21:28:52.321Z,12.40
2022-10-28T21:31:20.138Z,12.40
2022-10-28T21:36:21.553Z,12.40
2022-10-28T21:38:52.342Z,12.30
2022-10-28T21:41:20.976Z,12.40
2022-10-28T21:43:50.747Z,12.40
2022-10-28T21:46:19.613Z,12.50
2022-10-28T21:48:47.507Z,12.60
2022-10-28T21:51:16.274Z,12.60
2022-10-28T21:53:44.768Z,13.10
2022-10-28T21:56:19.154Z,13.00
2022-10-28T21:58:49.351Z,12.90
2022-10-28T22:01:22.494Z,12.80
2022-10-28T22:03:55.393Z,12.90
2022-10-28T22:06:23.181Z,13.10
2022-10-28T22:08:54.809Z,12.80
2022-10-28T22:11:24.112Z,12.60
2022-10-28T22:14:00.123Z,12.50
2022-10-28T22:16:29.771Z,12.40
2022-10-28T22:19:02.176Z,12.20
2022-10-28T22:21:31.999Z,12.20
2022-10-28T22:23:59.824Z,12.20
2022-10-28T22:26:29.657Z,12.30
2022-10-28T22:28:57.540Z,12.20
2022-10-28T22:31:27.738Z,12.40
2022-10-28T22:33:56.735Z,12.30
2022-10-28T22:36:26.448Z,12.40
2022-10-28T22:38:53.978Z,12.20
2022-10-28T22:41:29.602Z,12.30
2022-10-28T22:44:01.901Z,12.20
2022-10-28T22:46:30.233Z,12.10
2022-10-28T22:48:57.548Z,12.10
2022-10-28T22:51:24.931Z,12.00
2022-10-28T22:53:52.325Z,12.10
2022-10-28T22:56:25.102Z,12.00
2022-10-28T22:58:57.747Z,12.00
2022-10-28T23:01:27.457Z,12.00
2022-10-28T23:03:55.330Z,12.00
2022-10-28T23:06:24.827Z,12.00
2022-10-28T23:08:52.523Z,12.50
2022-10-28T23:11:21.017Z,12.50
2022-10-28T23:13:52.980Z,12.30
2022-10-28T23:16:21.258Z,12.40
2022-10-28T23:18:49.193Z,12.50
2022-10-28T23:21:19.563Z,12.30
2022-10-28T23:23:51.158Z,12.40
2022-10-28T23:26:22.245Z,12.40
2022-10-28T23:28:54.705Z,12.30
2022-10-28T23:31:22.971Z,12.20
2022-10-28T23:33:50.973Z,12.20
2022-10-28T23:36:18.598Z,12.20
2022-10-28T23:38:46.114Z,12.10
2022-10-28T23:41:18.486Z,12.00
2022-10-28T23:43:48.720Z,11.90
2022-10-28T23:46:16.503Z,11.90
2022-10-28T23:48:43.902Z,11.80
2022-10-28T23:51:11.350Z,11.70
2022-10-28T23:53:38.851Z,11.80
2022-10-28T23:56:06.828Z,12.00
2022-10-28T23:58:34.235Z,11.90
